Time;durP1;ratioP1;P1;durP2;ratioP2;P2;SDS_P1;SDS_P2;PMS_P1;PMS_P2;Temp;Humidity;BMP_temperature;BMP_pressure;BME280_temperature;BME280_humidity;BME280_pressure;Samples;Min_cycle;Max_cycle;Signal;HPM_P1;HPM_P2
2024/03/06 00:01:50;;;;;;;11.38;9.85;;;5.20;99.90;;;;;;5053566;28;20028;-89
2024/03/06 00:04:15;;;;;;;13.10;8.68;;;5.30;99.90;;;;;;5050569;28;20489;-89
2024/03/06 00:06:41;;;;;;;11.52;8.35;;;5.20;99.90;;;;;;5042433;28;20029;-89
2024/03/06 00:09:10;;;;;;;13.85;9.15;;;5.20;99.90;;;;;;5061277;28;20721;-89
2024/03/06 00:11:36;;;;;;;14.50;9.30;;;5.30;99.90;;;;;;5037754;28;20030;-89
2024/03/06 00:14:05;;;;;;;12.05;7.57;;;5.20;99.90;;;;;;5058485;28;20031;-88
2024/03/06 00:16:31;;;;;;;12.77;8.70;;;5.30;99.90;;;;;;5065378;28;20147;-90
2024/03/06 00:18:57;;;;;;;12.85;8.38;;;5.30;99.90;;;;;;5047359;28;20040;-89
2024/03/06 00:21:23;;;;;;;11.90;9.63;;;5.30;99.90;;;;;;5045526;28;20025;-90
2024/03/06 00:23:48;;;;;;;13.88;8.85;;;5.40;99.90;;;;;;5056284;28;20032;-88
2024/03/06 00:26:14;;;;;;;12.25;8.65;;;5.40;99.90;;;;;;5049746;28;20041;-89
2024/03/06 00:28:40;;;;;;;15.07;9.68;;;5.40;99.90;;;;;;5046484;28;20025;-89
2024/03/06 00:31:06;;;;;;;12.05;7.65;;;5.50;99.90;;;;;;5051860;28;20091;-89
2024/03/06 00:33:31;;;;;;;14.13;8.55;;;5.50;99.90;;;;;;5047225;28;20096;-89
2024/03/06 00:35:57;;;;;;;10.40;7.78;;;5.50;99.90;;;;;;5058919;28;20079;-89
2024/03/06 00:38:23;;;;;;;12.50;8.27;;;5.50;99.90;;;;;;5062677;28;20032;-89
2024/03/06 00:40:49;;;;;;;12.18;8.63;;;5.50;99.90;;;;;;5064071;28;20082;-89
2024/03/06 00:43:15;;;;;;;10.93;7.65;;;5.50;99.90;;;;;;5040992;28;20032;-90
2024/03/06 00:45:41;;;;;;;10.93;8.13;;;5.50;99.90;;;;;;5034339;28;20026;-89
2024/03/06 00:48:07;;;;;;;14.25;8.93;;;5.50;99.90;;;;;;5048878;28;20647;-89
2024/03/06 00:50:33;;;;;;;13.82;9.63;;;5.50;99.90;;;;;;5050980;28;20108;-89
2024/03/06 00:52:59;;;;;;;14.07;8.70;;;5.50;99.90;;;;;;5058730;28;20052;-89
2024/03/06 00:55:24;;;;;;;11.88;8.20;;;5.60;99.90;;;;;;5058639;28;20696;-88
2024/03/06 00:57:50;;;;;;;13.93;8.57;;;5.50;99.90;;;;;;5032665;28;20055;-89
2024/03/06 01:00:17;;;;;;;12.55;8.32;;;5.50;99.90;;;;;;5056888;28;20081;-89
2024/03/06 01:02:43;;;;;;;14.75;8.43;;;5.50;99.90;;;;;;5047311;28;20060;-89
2024/03/06 01:05:09;;;;;;;12.75;8.57;;;5.50;99.90;;;;;;5030231;28;20029;-89
2024/03/06 01:07:37;;;;;;;12.50;10.73;;;5.40;99.90;;;;;;5036073;28;20396;-89
2024/03/06 01:10:06;;;;;;;13.00;8.60;;;5.50;99.90;;;;;;5037813;28;20191;-89
2024/03/06 01:12:32;;;;;;;12.02;8.52;;;5.50;99.90;;;;;;5033181;28;20487;-88
2024/03/06 01:14:58;;;;;;;12.82;8.02;;;5.50;99.90;;;;;;5058211;28;20039;-89
2024/03/06 01:17:24;;;;;;;14.35;8.52;;;5.50;99.90;;;;;;5070620;28;20076;-89
2024/03/06 01:19:50;;;;;;;13.27;8.13;;;5.50;99.90;;;;;;5046285;28;20029;-89
2024/03/06 01:22:16;;;;;;;10.77;8.13;;;5.40;99.90;;;;;;5040836;28;20029;-88
2024/03/06 01:24:42;;;;;;;10.75;8.18;;;5.40;99.90;;;;;;5046923;28;20092;-89
2024/03/06 01:27:08;;;;;;;14.52;8.27;;;5.50;99.90;;;;;;5061469;28;20029;-89
2024/03/06 01:29:34;;;;;;;10.95;8.23;;;5.50;99.90;;;;;;5032888;28;20033;-88
2024/03/06 01:31:59;;;;;;;12.48;7.50;;;5.50;99.90;;;;;;5052792;28;20036;-90
2024/03/06 01:34:25;;;;;;;13.50;8.70;;;5.40;99.90;;;;;;5040068;28;20391;-89
2024/03/06 01:36:52;;;;;;;12.52;7.53;;;5.40;99.90;;;;;;5041327;28;20075;-89
2024/03/06 01:39:18;;;;;;;13.38;7.97;;;5.40;99.90;;;;;;5050306;28;20123;-89
2024/03/06 01:41:47;;;;;;;10.27;8.10;;;5.40;99.90;;;;;;5058190;28;20476;-89
2024/03/06 01:44:17;;;;;;;9.57;8.48;;;5.40;99.90;;;;;;5055715;28;20107;-89
2024/03/06 01:46:44;;;;;;;14.23;9.45;;;5.40;99.90;;;;;;5049448;28;20028;-91
2024/03/06 01:49:13;;;;;;;13.68;7.80;;;5.40;99.90;;;;;;5058454;28;20047;-90
2024/03/06 01:51:40;;;;;;;12.32;8.02;;;5.40;99.90;;;;;;5056435;28;20017;-88
2024/03/06 01:54:06;;;;;;;12.68;7.90;;;5.30;99.90;;;;;;5047252;28;20025;-89
2024/03/06 01:56:35;;;;;;;13.32;8.20;;;5.30;99.90;;;;;;5047513;28;20032;-90
2024/03/06 01:59:02;;;;;;;14.15;9.00;;;5.30;99.90;;;;;;5032020;28;20116;-88
2024/03/06 02:01:28;;;;;;;13.52;8.73;;;5.20;99.90;;;;;;5039066;28;20448;-89
2024/03/06 02:03:54;;;;;;;12.63;8.48;;;5.20;99.90;;;;;;5062058;28;20075;-90
2024/03/06 02:06:21;;;;;;;12.95;8.63;;;5.10;99.90;;;;;;5055562;28;20479;-89
2024/03/06 02:08:47;;;;;;;8.77;7.40;;;5.10;99.90;;;;;;5046796;28;20029;-88
2024/03/06 02:11:13;;;;;;;12.98;7.97;;;5.10;99.90;;;;;;5021807;28;20112;-89
2024/03/06 02:13:40;;;;;;;12.05;8.05;;;5.10;99.90;;;;;;5037018;28;20021;-89
2024/03/06 02:16:06;;;;;;;11.48;7.53;;;5.10;99.90;;;;;;5047267;28;20047;-89
2024/03/06 02:18:31;;;;;;;13.02;8.48;;;5.10;99.90;;;;;;5058029;28;20033;-90
2024/03/06 02:20:57;;;;;;;11.73;8.20;;;5.10;99.90;;;;;;5058809;28;20021;-89
2024/03/06 02:23:23;;;;;;;9.07;6.70;;;5.10;99.90;;;;;;5055289;28;20427;-89
2024/03/06 02:25:50;;;;;;;10.43;7.40;;;5.10;99.90;;;;;;5037989;28;20029;-89
2024/03/06 02:28:16;;;;;;;11.75;10.60;;;5.10;99.90;;;;;;5055289;28;20126;-89
2024/03/06 02:30:42;;;;;;;8.43;7.60;;;5.10;99.90;;;;;;5040527;28;20089;-88
2024/03/06 02:33:09;;;;;;;13.18;7.13;;;5.10;99.90;;;;;;5067240;28;20053;-89
2024/03/06 02:35:38;;;;;;;14.13;7.28;;;5.00;99.90;;;;;;5048302;28;20053;-89
2024/03/06 02:38:07;;;;;;;10.55;7.13;;;5.00;99.90;;;;;;5028765;28;20025;-89
2024/03/06 02:40:33;;;;;;;12.07;6.70;;;5.00;99.90;;;;;;5058311;28;20105;-88
2024/03/06 02:42:59;;;;;;;11.55;6.82;;;5.00;99.90;;;;;;5066442;28;20052;-89
2024/03/06 02:45:24;;;;;;;11.75;6.78;;;5.00;99.90;;;;;;5042377;28;20487;-89
2024/03/06 02:47:50;;;;;;;12.55;8.38;;;5.10;99.90;;;;;;5032776;28;20029;-88
2024/03/06 02:50:16;;;;;;;9.27;7.35;;;5.10;99.90;;;;;;5058199;28;20025;-88
2024/03/06 02:52:42;;;;;;;13.55;9.75;;;5.10;99.90;;;;;;5055594;28;20021;-91
2024/03/06 02:55:07;;;;;;;13.93;8.18;;;5.10;99.90;;;;;;5049002;28;20028;-89
2024/03/06 02:57:33;;;;;;;10.00;7.05;;;5.20;99.90;;;;;;5052658;28;20029;-88
2024/03/06 02:59:59;;;;;;;15.38;8.95;;;5.20;99.90;;;;;;5061157;28;20058;-90
2024/03/06 03:02:25;;;;;;;13.82;9.82;;;5.20;99.90;;;;;;5070768;28;20029;-89
2024/03/06 03:04:52;;;;;;;10.93;7.57;;;5.20;99.90;;;;;;5067436;28;20025;-89
2024/03/06 03:07:20;;;;;;;13.90;10.43;;;5.20;99.90;;;;;;5061941;28;20147;-89
2024/03/06 03:09:49;;;;;;;12.70;8.30;;;5.10;99.90;;;;;;5081819;28;20478;-90
2024/03/06 03:12:15;;;;;;;14.93;8.55;;;5.10;99.90;;;;;;5044847;28;20021;-90
2024/03/06 03:14:41;;;;;;;15.00;8.25;;;5.10;99.90;;;;;;5042556;28;20032;-91
2024/03/06 03:17:07;;;;;;;15.68;9.68;;;5.10;99.90;;;;;;5028144;28;20032;-90
2024/03/06 03:19:33;;;;;;;14.13;9.48;;;5.10;99.90;;;;;;5046796;28;20018;-89
2024/03/06 03:21:59;;;;;;;10.70;8.43;;;5.10;99.90;;;;;;5031501;28;20139;-89
2024/03/06 03:24:25;;;;;;;12.40;8.85;;;5.20;99.90;;;;;;5075130;28;20021;-90
2024/03/06 03:26:52;;;;;;;13.02;8.98;;;5.20;99.90;;;;;;5052602;28;20033;-89
2024/03/06 03:29:18;;;;;;;14.95;8.75;;;5.20;99.90;;;;;;5052242;28;20013;-88
2024/03/06 03:31:44;;;;;;;11.50;8.90;;;5.20;99.90;;;;;;5052475;28;20036;-89
2024/03/06 03:34:13;;;;;;;14.82;8.85;;;5.20;99.90;;;;;;5023706;28;20052;-89
2024/03/06 03:36:42;;;;;;;12.43;9.38;;;5.20;99.90;;;;;;5022880;28;20048;-89
2024/03/06 03:39:17;;;;;;;10.63;8.18;;;5.20;99.90;;;;;;5034768;28;20112;-89
2024/03/06 03:41:47;;;;;;;14.65;9.20;;;5.20;99.90;;;;;;5065946;28;20028;-89
2024/03/06 03:44:18;;;;;;;11.15;9.10;;;5.20;99.90;;;;;;5040098;28;20540;-88
2024/03/06 03:46:45;;;;;;;14.50;9.10;;;5.30;99.90;;;;;;5071532;28;20025;-89
2024/03/06 03:49:11;;;;;;;15.02;10.20;;;5.30;99.90;;;;;;5065667;28;20412;-89
2024/03/06 03:51:38;;;;;;;10.20;8.43;;;5.30;99.90;;;;;;5051028;28;20029;-88
2024/03/06 03:54:04;;;;;;;12.27;8.55;;;5.30;99.90;;;;;;5058845;28;20526;-89
2024/03/06 03:56:30;;;;;;;18.52;8.98;;;5.20;99.90;;;;;;5071926;28;20029;-90
2024/03/06 03:58:58;;;;;;;12.52;9.05;;;5.20;99.90;;;;;;5059112;28;20156;-88
2024/03/06 04:01:25;;;;;;;12.65;9.15;;;5.20;99.90;;;;;;5033131;28;20029;-89
2024/03/06 04:03:51;;;;;;;13.23;10.35;;;5.20;99.90;;;;;;5046680;28;20036;-89
2024/03/06 04:06:18;;;;;;;12.30;10.05;;;5.20;99.90;;;;;;5060672;28;20419;-90
2024/03/06 04:08:44;;;;;;;14.93;8.57;;;5.20;99.90;;;;;;5049266;28;20067;-89
2024/03/06 04:11:10;;;;;;;12.18;8.00;;;5.20;99.90;;;;;;5058871;28;20017;-90
2024/03/06 04:13:39;;;;;;;11.30;8.05;;;5.20;99.90;;;;;;5022287;28;20018;-89
2024/03/06 04:16:05;;;;;;;9.05;6.93;;;5.20;99.90;;;;;;5031404;28;20024;-89
2024/03/06 04:18:35;;;;;;;8.15;6.85;;;5.20;99.90;;;;;;5038218;28;20030;-88
2024/03/06 04:21:05;;;;;;;9.13;6.07;;;5.20;99.90;;;;;;5047408;28;20029;-89
2024/03/06 04:23:31;;;;;;;7.63;6.05;;;5.20;99.90;;;;;;5029501;28;20051;-91
2024/03/06 04:25:56;;;;;;;12.27;6.15;;;5.10;99.90;;;;;;5052853;28;20064;-89
2024/03/06 04:28:22;;;;;;;10.43;7.47;;;5.20;99.90;;;;;;5059364;28;20450;-89
2024/03/06 04:30:48;;;;;;;10.20;6.57;;;5.10;99.90;;;;;;5053317;28;20034;-89
2024/03/06 04:33:15;;;;;;;9.93;7.45;;;5.10;99.90;;;;;;5075986;28;20477;-90
2024/03/06 04:35:41;;;;;;;9.30;6.15;;;5.10;99.90;;;;;;5061477;28;20050;-89
2024/03/06 04:38:07;;;;;;;10.80;6.65;;;5.10;99.90;;;;;;5040527;28;20037;-89
2024/03/06 04:40:34;;;;;;;9.43;5.70;;;5.10;99.90;;;;;;5059727;28;20025;-90
2024/03/06 04:43:02;;;;;;;8.82;5.43;;;5.10;99.90;;;;;;5042982;28;20029;-91
2024/03/06 04:45:28;;;;;;;9.82;6.90;;;5.10;99.90;;;;;;5057882;28;20044;-90
2024/03/06 04:47:54;;;;;;;10.68;7.45;;;5.10;99.90;;;;;;5071905;28;20048;-91
2024/03/06 04:50:20;;;;;;;7.57;5.93;;;5.00;99.90;;;;;;5067229;28;20013;-93
2024/03/06 04:52:46;;;;;;;7.80;5.97;;;5.10;99.90;;;;;;5057857;28;20036;-90
2024/03/06 04:55:12;;;;;;;7.95;6.47;;;5.10;99.90;;;;;;5066960;28;20025;-92
2024/03/06 04:57:40;;;;;;;9.70;6.97;;;5.10;99.90;;;;;;5056711;28;20051;-90
2024/03/06 05:00:06;;;;;;;;;;;5.00;99.90;;;;;;5056339;28;20052;-90
2024/03/06 05:02:34;;;;;;;10.30;6.72;;;5.00;99.90;;;;;;5068452;28;19904;-92
2024/03/06 05:05:00;;;;;;;9.07;7.50;;;4.90;99.90;;;;;;5067247;28;20039;-89
2024/03/06 05:07:28;;;;;;;11.73;7.03;;;4.90;99.90;;;;;;5083446;28;20116;-90
2024/03/06 05:09:53;;;;;;;12.85;7.28;;;4.80;99.90;;;;;;5041927;28;20112;-91
2024/03/06 05:12:19;;;;;;;13.43;7.82;;;4.90;99.90;;;;;;5031502;28;20045;-90
2024/03/06 05:14:45;;;;;;;11.40;7.35;;;4.90;99.90;;;;;;5041020;28;20052;-90
2024/03/06 05:17:10;;;;;;;14.23;8.60;;;4.90;99.90;;;;;;5059608;28;20493;-89
2024/03/06 05:19:37;;;;;;;12.30;8.07;;;4.80;99.90;;;;;;5054788;28;20036;-90
2024/03/06 05:22:03;;;;;;;11.63;7.70;;;4.80;99.90;;;;;;5067639;28;20024;-90
2024/03/06 05:24:29;;;;;;;15.18;8.65;;;4.80;99.90;;;;;;5066412;28;20029;-91
2024/03/06 05:26:55;;;;;;;7.55;6.05;;;4.80;99.90;;;;;;5060212;28;20032;-90
2024/03/06 05:29:20;;;;;;;11.35;7.05;;;4.80;99.90;;;;;;5038114;28;20468;-91
2024/03/06 05:31:46;;;;;;;14.52;8.10;;;4.90;99.90;;;;;;5043755;28;20039;-89
2024/03/06 05:34:12;;;;;;;8.93;6.75;;;4.90;99.90;;;;;;5053368;28;20040;-89
2024/03/06 05:36:38;;;;;;;12.82;7.65;;;4.90;99.90;;;;;;5059140;28;20067;-89
2024/03/06 05:39:12;;;;;;;9.68;6.25;;;4.90;99.90;;;;;;5059182;28;20081;-88
2024/03/06 05:41:40;;;;;;;10.65;6.22;;;4.90;99.90;;;;;;5070046;28;20021;-90
2024/03/06 05:44:06;;;;;;;12.13;7.65;;;4.90;99.90;;;;;;5038478;28;20083;-90
2024/03/06 05:46:32;;;;;;;9.68;6.93;;;4.90;99.90;;;;;;5042595;28;20479;-90
2024/03/06 05:48:58;;;;;;;9.27;6.32;;;4.90;99.90;;;;;;5058569;28;20025;-88
2024/03/06 05:51:23;;;;;;;12.60;6.63;;;5.00;99.90;;;;;;5035014;28;20021;-89
2024/03/06 05:53:49;;;;;;;10.60;6.28;;;5.00;99.90;;;;;;5050929;28;20088;-89
2024/03/06 05:56:15;;;;;;;11.20;6.25;;;5.00;99.90;;;;;;5066311;28;20025;-89
2024/03/06 05:58:40;;;;;;;14.02;6.95;;;4.90;99.90;;;;;;5061966;28;20036;-89
2024/03/06 06:01:06;;;;;;;9.30;6.60;;;4.90;99.90;;;;;;5067527;28;20037;-89
2024/03/06 06:03:32;;;;;;;13.25;7.63;;;4.90;99.90;;;;;;5026927;28;20021;-90
2024/03/06 06:05:58;;;;;;;8.63;7.45;;;4.90;99.90;;;;;;5058952;28;20104;-90
2024/03/06 06:08:24;;;;;;;10.43;6.50;;;4.80;99.90;;;;;;5049007;28;20021;-88
2024/03/06 06:10:51;;;;;;;11.30;6.75;;;4.90;99.90;;;;;;5049889;28;20162;-90
2024/03/06 06:13:21;;;;;;;11.77;7.20;;;4.90;99.90;;;;;;5031676;28;20491;-91
2024/03/06 06:15:46;;;;;;;10.35;6.57;;;4.90;99.90;;;;;;5060482;28;20029;-91
2024/03/06 06:18:12;;;;;;;10.00;6.95;;;4.90;99.90;;;;;;5041923;28;20033;-89
2024/03/06 06:20:38;;;;;;;10.50;6.47;;;4.90;99.90;;;;;;5035532;28;20102;-91
2024/03/06 06:23:04;;;;;;;11.82;7.40;;;5.00;99.90;;;;;;5041096;28;20074;-89
2024/03/06 06:25:32;;;;;;;13.75;7.60;;;5.00;99.90;;;;;;5040219;28;20036;-89
2024/03/06 06:27:58;;;;;;;;;;;4.90;99.90;;;;;;5054902;28;20029;-88
2024/03/06 06:30:24;;;;;;;11.25;6.97;;;5.10;99.90;;;;;;5012842;28;19942;-89
2024/03/06 06:32:50;;;;;;;13.02;7.68;;;5.10;99.90;;;;;;4999087;28;20036;-89
2024/03/06 06:35:18;;;;;;;21.02;7.60;;;5.10;99.90;;;;;;5033591;28;20032;-90
2024/03/06 06:37:44;;;;;;;19.55;10.15;;;5.20;99.90;;;;;;5039558;28;20028;-89
2024/03/06 06:40:12;;;;;;;10.60;8.10;;;5.20;99.90;;;;;;5037197;28;20025;-87
2024/03/06 06:42:43;;;;;;;9.98;7.78;;;5.20;99.90;;;;;;5038451;28;20124;-91
2024/03/06 06:45:09;;;;;;;13.88;8.20;;;5.20;99.90;;;;;;5039365;28;20059;-90
2024/03/06 06:47:35;;;;;;;11.20;9.70;;;5.30;99.90;;;;;;5034723;28;20048;-90
2024/03/06 06:50:05;;;;;;;11.07;7.13;;;5.30;99.90;;;;;;5040739;28;20082;-91
2024/03/06 06:52:33;;;;;;;11.85;10.52;;;5.30;99.90;;;;;;5034689;28;21233;-92
2024/03/06 06:54:59;;;;;;;12.52;8.57;;;5.40;99.90;;;;;;5043924;28;20108;-89
2024/03/06 06:57:24;;;;;;;14.93;8.52;;;5.40;99.90;;;;;;5061976;28;20083;-91
2024/03/06 06:59:50;;;;;;;13.68;9.18;;;5.40;99.90;;;;;;5081525;28;20031;-90
2024/03/06 07:02:16;;;;;;;13.57;8.80;;;5.50;99.90;;;;;;5067789;28;20082;-90
2024/03/06 07:04:42;;;;;;;13.38;7.95;;;5.50;99.90;;;;;;5059420;28;20090;-89
2024/03/06 07:07:07;;;;;;;16.13;9.75;;;5.60;99.90;;;;;;5070526;28;20048;-90
2024/03/06 07:09:33;;;;;;;14.50;8.68;;;5.60;99.90;;;;;;5065027;28;20017;-90
2024/03/06 07:11:59;;;;;;;13.93;8.35;;;5.60;99.90;;;;;;5059960;28;20060;-91
2024/03/06 07:14:25;;;;;;;13.93;9.90;;;5.60;99.90;;;;;;5057702;28;20017;-92
2024/03/06 07:16:51;;;;;;;15.10;9.90;;;5.60;99.90;;;;;;5045901;28;20043;-91
2024/03/06 07:19:17;;;;;;;15.05;8.40;;;5.70;99.90;;;;;;5060225;28;20018;-90
2024/03/06 07:21:44;;;;;;;15.20;8.77;;;5.70;99.90;;;;;;5052684;28;20017;-88
2024/03/06 07:24:09;;;;;;;13.23;7.43;;;5.70;99.90;;;;;;5063568;28;20017;-89
2024/03/06 07:26:35;;;;;;;10.50;8.13;;;5.80;99.90;;;;;;5054520;28;20028;-89
2024/03/06 07:29:04;;;;;;;10.85;7.75;;;5.80;99.90;;;;;;5061431;28;20079;-90
2024/03/06 07:31:29;;;;;;;12.63;7.57;;;5.80;99.90;;;;;;5042839;28;20030;-91
2024/03/06 07:33:55;;;;;;;11.20;7.32;;;5.70;99.90;;;;;;5067390;28;20079;-90
2024/03/06 07:36:21;;;;;;;18.48;9.38;;;5.80;99.90;;;;;;5060595;28;20021;-92
2024/03/06 07:38:47;;;;;;;14.95;10.48;;;5.80;99.90;;;;;;5044023;28;20025;-90
2024/03/06 07:41:13;;;;;;;14.95;10.23;;;5.80;99.90;;;;;;5065716;28;20141;-92
2024/03/06 07:43:39;;;;;;;15.00;8.75;;;5.90;99.90;;;;;;5036551;28;20020;-90
2024/03/06 07:46:10;;;;;;;15.27;8.48;;;5.90;99.90;;;;;;5070725;28;20062;-91
2024/03/06 07:48:37;;;;;;;13.15;9.63;;;5.90;99.90;;;;;;5053231;28;20021;-90
2024/03/06 07:51:03;;;;;;;15.80;9.15;;;5.90;99.90;;;;;;5036125;28;20080;-91
2024/03/06 07:53:29;;;;;;;19.25;10.65;;;5.90;99.90;;;;;;5062565;28;20025;-91
2024/03/06 07:55:54;;;;;;;15.57;9.90;;;6.00;99.90;;;;;;5063660;28;20017;-91
2024/03/06 07:58:21;;;;;;;17.17;10.77;;;6.00;99.90;;;;;;5042641;28;20033;-91
2024/03/06 08:00:46;;;;;;;15.10;10.45;;;6.00;99.90;;;;;;5051466;28;20033;-92
2024/03/06 08:03:13;;;;;;;15.63;10.75;;;5.90;99.90;;;;;;5077252;28;20080;-91
2024/03/06 08:05:39;;;;;;;16.95;10.25;;;5.90;99.90;;;;;;5069082;28;20052;-91
2024/03/06 08:08:09;;;;;;;14.13;9.25;;;6.00;99.90;;;;;;5062286;28;20017;-89
2024/03/06 08:10:35;;;;;;;16.40;9.35;;;6.00;99.90;;;;;;5056096;28;20533;-91
2024/03/06 08:13:00;;;;;;;16.05;10.02;;;6.10;99.90;;;;;;5059168;28;20037;-92
2024/03/06 08:15:26;;;;;;;17.90;10.25;;;6.10;99.90;;;;;;5080816;28;20040;-91
2024/03/06 08:17:52;;;;;;;18.85;10.18;;;6.00;99.90;;;;;;5046099;28;20037;-92
2024/03/06 08:20:18;;;;;;;20.27;9.00;;;6.10;99.90;;;;;;5046538;28;20074;-92
2024/03/06 08:22:44;;;;;;;13.18;8.68;;;6.10;99.90;;;;;;5037233;28;20031;-90
2024/03/06 08:25:13;;;;;;;17.80;9.43;;;6.20;99.90;;;;;;5051206;28;20020;-92
2024/03/06 08:27:40;;;;;;;14.73;10.27;;;6.10;99.90;;;;;;5049541;28;20017;-91
2024/03/06 08:30:08;;;;;;;15.20;13.55;;;6.20;99.90;;;;;;5062009;28;20175;-91
2024/03/06 08:32:35;;;;;;;16.73;10.02;;;6.30;99.90;;;;;;5044164;28;20036;-90
2024/03/06 08:35:11;;;;;;;19.08;10.32;;;6.30;99.90;;;;;;5067631;28;20013;-91
2024/03/06 08:37:38;;;;;;;17.45;10.05;;;6.40;99.90;;;;;;5035670;28;20022;-92
2024/03/06 08:40:05;;;;;;;18.23;9.93;;;6.50;99.90;;;;;;5069814;28;20022;-92
2024/03/06 08:42:32;;;;;;;16.45;10.40;;;6.40;99.90;;;;;;5025538;28;20408;-91
2024/03/06 08:44:58;;;;;;;25.58;16.75;;;6.60;99.90;;;;;;5047217;28;20032;-91
2024/03/06 08:47:24;;;;;;;18.08;12.10;;;6.40;99.90;;;;;;5058376;28;20037;-94
2024/03/06 08:49:50;;;;;;;19.60;11.70;;;6.30;99.90;;;;;;5077727;28;20028;-91
2024/03/06 08:52:15;;;;;;;16.45;11.20;;;6.40;99.90;;;;;;5062010;28;20433;-91
2024/03/06 08:54:44;;;;;;;16.15;9.93;;;6.30;99.90;;;;;;5075300;28;20021;-91
2024/03/06 08:57:11;;;;;;;16.27;11.02;;;6.30;99.90;;;;;;5060723;28;20021;-91
2024/03/06 08:59:37;;;;;;;16.48;11.40;;;6.40;99.90;;;;;;5058900;28;20407;-90
2024/03/06 09:02:21;;;;;;;15.80;10.65;;;6.60;99.90;;;;;;5043637;28;20029;-91
2024/03/06 09:04:47;;;;;;;14.15;9.07;;;6.70;99.90;;;;;;5058189;28;20025;-91
2024/03/06 09:07:14;;;;;;;14.75;9.70;;;6.70;99.90;;;;;;5072471;28;20126;-91
2024/03/06 09:09:41;;;;;;;16.35;8.95;;;6.60;99.90;;;;;;5081438;28;20017;-91
2024/03/06 09:12:10;;;;;;;13.43;8.85;;;6.60;99.90;;;;;;5057629;28;20024;-91
2024/03/06 09:14:37;;;;;;;13.60;9.32;;;6.70;99.90;;;;;;5044832;28;20089;-91
2024/03/06 09:17:03;;;;;;;13.05;8.02;;;6.80;99.90;;;;;;5062178;28;20025;-93
2024/03/06 09:19:29;;;;;;;15.15;8.55;;;6.90;99.90;;;;;;5051604;28;20021;-93
2024/03/06 09:21:55;;;;;;;14.55;9.18;;;7.00;99.90;;;;;;5039345;28;20021;-91
2024/03/06 09:24:22;;;;;;;13.63;9.10;;;7.20;99.90;;;;;;5079974;28;20406;-89
2024/03/06 09:26:48;;;;;;;15.00;8.60;;;7.40;99.90;;;;;;5040741;28;20480;-92
2024/03/06 09:29:21;;;;;;;14.43;8.48;;;7.40;99.90;;;;;;5053006;28;20027;-90
2024/03/06 09:31:48;;;;;;;12.85;7.97;;;7.40;99.90;;;;;;5053098;28;20032;-90
2024/03/06 09:34:14;;;;;;;15.93;8.20;;;7.40;99.90;;;;;;5048065;28;20021;-91
2024/03/06 09:36:47;;;;;;;14.15;7.78;;;7.40;99.90;;;;;;5059822;28;20024;-90
2024/03/06 09:39:16;;;;;;;13.00;7.60;;;7.40;99.90;;;;;;5047327;28;20093;-90
2024/03/06 09:41:46;;;;;;;12.07;7.25;;;7.60;99.90;;;;;;5049117;28;20072;-88
2024/03/06 09:44:13;;;;;;;12.02;7.25;;;7.70;99.90;;;;;;5054124;28;20058;-90
2024/03/06 09:46:44;;;;;;;11.45;6.53;;;7.70;99.90;;;;;;5046646;28;20028;-91
2024/03/06 09:49:14;;;;;;;9.65;5.85;;;7.70;99.90;;;;;;5051042;28;20029;-92
2024/03/06 09:51:46;;;;;;;10.98;6.75;;;7.80;99.90;;;;;;5064505;28;20025;-91
2024/03/06 09:54:16;;;;;;;12.82;7.57;;;7.80;99.90;;;;;;5051123;28;20025;-91
2024/03/06 09:56:47;;;;;;;14.40;7.78;;;7.80;99.90;;;;;;5061017;28;20029;-92
2024/03/06 09:59:14;;;;;;;14.32;8.38;;;7.90;99.90;;;;;;5076026;28;20517;-92
2024/03/06 10:01:57;;;;;;;12.40;7.32;;;8.00;99.90;;;;;;5064754;28;20020;-91
2024/03/06 10:04:28;;;;;;;13.95;7.43;;;7.90;99.90;;;;;;5052645;28;20059;-89
2024/03/06 10:06:55;;;;;;;13.90;8.40;;;8.10;99.90;;;;;;5048075;28;20036;-91
2024/03/06 10:09:21;;;;;;;10.60;7.60;;;8.00;99.90;;;;;;5081387;28;20039;-89
2024/03/06 10:11:47;;;;;;;13.93;7.70;;;8.10;99.90;;;;;;5075775;28;20514;-90
2024/03/06 10:14:13;;;;;;;13.90;8.80;;;8.20;99.90;;;;;;5062675;28;20012;-91
2024/03/06 10:17:18;;;;;;;16.52;11.70;;;8.40;99.90;;;;;;5055654;28;20064;-89
2024/03/06 10:19:50;;;;;;;11.80;7.82;;;8.20;99.90;;;;;;5039739;28;20090;-91
2024/03/06 10:22:16;;;;;;;14.65;9.90;;;8.20;99.90;;;;;;5082994;28;20074;-89
2024/03/06 10:24:42;;;;;;;19.83;16.23;;;8.40;99.90;;;;;;5044070;28;20504;-88
2024/03/06 10:27:07;;;;;;;12.13;7.97;;;8.40;99.90;;;;;;5078238;28;20449;-92
2024/03/06 10:29:35;;;;;;;16.30;8.82;;;8.40;99.90;;;;;;5047298;28;20025;-90
2024/03/06 10:32:01;;;;;;;19.30;10.35;;;8.30;99.90;;;;;;5045912;28;20074;-92
2024/03/06 10:34:28;;;;;;;17.35;9.30;;;8.50;99.90;;;;;;5064496;28;20116;-91
2024/03/06 10:36:55;;;;;;;;;;;8.60;99.90;;;;;;5050699;28;20028;-89
2024/03/06 10:39:22;;;;;;;14.02;8.57;;;8.60;99.90;;;;;;5062028;28;19935;-89
2024/03/06 10:41:55;;;;;;;17.08;11.40;;;8.70;99.90;;;;;;5063259;28;20052;-89
2024/03/06 10:44:30;;;;;;;14.25;8.52;;;8.90;99.90;;;;;;5063955;28;20025;-92
2024/03/06 10:47:00;;;;;;;15.10;10.93;;;9.00;99.90;;;;;;5068474;28;20166;-92
2024/03/06 10:49:27;;;;;;;15.93;8.88;;;8.90;99.90;;;;;;5083920;28;20025;-89
2024/03/06 10:52:00;;;;;;;;;;;8.90;99.90;;;;;;5083237;28;20044;-91
2024/03/06 10:54:32;;;;;;;14.48;9.63;;;8.80;99.90;;;;;;5078813;28;19905;-91
2024/03/06 10:56:58;;;;;;;15.15;9.52;;;8.60;99.90;;;;;;5047229;28;20087;-91
2024/03/06 10:59:29;;;;;;;14.20;8.70;;;8.50;99.90;;;;;;5033637;28;20021;-92
2024/03/06 11:01:56;;;;;;;13.60;9.38;;;8.50;99.90;;;;;;5029635;28;20032;-92
2024/03/06 11:04:30;;;;;;;14.75;10.45;;;8.60;99.90;;;;;;5054440;28;20025;-91
2024/03/06 11:07:00;;;;;;;16.80;10.55;;;8.70;99.90;;;;;;5042245;28;20022;-88
2024/03/06 11:09:27;;;;;;;15.20;9.65;;;8.70;99.90;;;;;;5056272;28;20027;-90
2024/03/06 11:11:55;;;;;;;17.38;9.40;;;8.60;99.90;;;;;;5029172;28;20032;-90
2024/03/06 11:14:27;;;;;;;13.73;8.43;;;8.60;99.80;;;;;;5056939;28;20092;-90
2024/03/06 11:16:59;;;;;;;13.95;9.68;;;8.40;97.20;;;;;;5047016;28;20028;-89
2024/03/06 11:19:25;;;;;;;13.35;8.93;;;8.50;98.80;;;;;;5065603;28;20051;-90
2024/03/06 11:21:51;;;;;;;17.75;9.45;;;8.50;99.90;;;;;;5071585;28;20479;-90
2024/03/06 11:24:21;;;;;;;22.88;12.68;;;8.50;99.90;;;;;;5074857;28;20017;-92
2024/03/06 11:27:07;;;;;;;15.18;10.02;;;8.50;99.90;;;;;;5073029;28;20019;-91
2024/03/06 11:30:10;;;;;;;17.52;10.68;;;8.50;99.90;;;;;;5045548;28;20056;-90
2024/03/06 11:32:37;;;;;;;15.27;10.45;;;8.50;99.90;;;;;;5053962;28;20026;-90
2024/03/06 11:35:06;;;;;;;16.40;9.45;;;8.70;99.60;;;;;;5049460;28;20025;-91
2024/03/06 11:37:34;;;;;;;19.20;10.95;;;8.70;98.80;;;;;;5046345;28;20033;-91
2024/03/06 11:40:08;;;;;;;17.52;9.52;;;8.70;99.50;;;;;;5050200;28;20082;-91
2024/03/06 11:42:35;;;;;;;13.98;9.70;;;8.50;99.80;;;;;;5046924;28;20060;-92
2024/03/06 11:45:22;;;;;;;17.58;10.80;;;8.40;98.20;;;;;;5056823;28;20025;-88
2024/03/06 11:48:01;;;;;;;16.60;9.63;;;8.40;98.90;;;;;;5068081;28;20025;-93
2024/03/06 11:50:28;;;;;;;17.17;9.85;;;8.40;99.50;;;;;;5063375;28;20056;-90
2024/03/06 11:52:57;;;;;;;17.77;10.38;;;8.40;99.90;;;;;;5063576;28;20056;-90
2024/03/06 11:55:26;;;;;;;16.88;11.48;;;8.50;99.90;;;;;;5062999;28;20117;-91
2024/03/06 11:57:55;;;;;;;18.25;11.35;;;8.50;99.90;;;;;;5063563;28;20086;-89
2024/03/06 12:00:23;;;;;;;15.60;11.02;;;8.40;99.20;;;;;;5080278;28;20090;-91
2024/03/06 12:02:50;;;;;;;21.30;11.30;;;8.40;99.90;;;;;;5064998;28;20127;-90
2024/03/06 12:05:17;;;;;;;19.45;17.10;;;8.50;99.90;;;;;;5046369;28;20163;-90
2024/03/06 12:08:03;;;;;;;23.17;17.02;;;8.40;99.90;;;;;;5059562;28;20109;-90
2024/03/06 12:10:28;;;;;;;20.27;11.45;;;8.40;99.90;;;;;;5057649;28;20092;-90
2024/03/06 12:12:54;;;;;;;19.90;11.88;;;8.50;99.90;;;;;;5062317;28;20045;-91
2024/03/06 12:15:20;;;;;;;18.67;12.57;;;8.50;99.90;;;;;;5029078;28;20108;-91
2024/03/06 12:17:49;;;;;;;20.55;11.52;;;8.50;99.90;;;;;;5059562;28;20024;-89
2024/03/06 12:20:15;;;;;;;17.95;11.52;;;8.40;99.70;;;;;;5068588;28;20025;-90
2024/03/06 12:22:55;;;;;;;16.90;9.85;;;8.50;99.90;;;;;;5069522;28;20025;-91
2024/03/06 12:25:23;;;;;;;19.33;13.00;;;8.50;99.90;;;;;;5056176;28;20048;-91
2024/03/06 12:27:50;;;;;;;18.60;9.77;;;8.50;99.90;;;;;;5072075;28;20075;-91
2024/03/06 12:30:21;;;;;;;17.60;11.95;;;8.60;98.20;;;;;;5052460;28;20037;-88
2024/03/06 12:33:04;;;;;;;18.50;11.43;;;8.50;99.10;;;;;;5044399;28;20036;-91
2024/03/06 12:35:30;;;;;;;18.58;11.07;;;8.50;98.30;;;;;;5051073;28;20036;-90
2024/03/06 12:37:56;;;;;;;17.77;10.90;;;8.60;98.90;;;;;;5064653;28;20032;-90
2024/03/06 12:40:23;;;;;;;21.83;11.43;;;8.70;98.10;;;;;;5043941;28;20030;-90
2024/03/06 12:42:53;;;;;;;19.80;10.27;;;8.90;98.30;;;;;;5053478;28;20128;-91
2024/03/06 12:45:19;;;;;;;17.52;9.95;;;8.80;96.90;;;;;;5043890;28;20032;-91
2024/03/06 12:47:48;;;;;;;19.88;9.93;;;8.80;95.90;;;;;;5056408;28;20025;-91
2024/03/06 12:50:14;;;;;;;16.38;10.98;;;8.80;96.90;;;;;;5052994;28;20023;-86